FMEPFIMP

Guest
Details From FMEP - ST PIERRE PIERREFONDS
To FIMP - SIR SEEWOOSAGUR RAMGOOLAM INTL
Flight Number -
Tags generated
Created
Modified
Stats Distance 138 nm / 256 km
Max Altitude 17,300 ft / 5,273 m
Waypoints 4
Social Downloads 1
Likes 0
Share

Download

Looking for another format? Having issues loading an existing format? Contact us
Advertisement - Login to hide

Notes

Basic altitude profile: - Ascent Rate: 2500ft/min - Ascent Speed: 250kts - Cruise Altitude: 35000ft - Cruise Speed: 420kts - Descent Rate: 1500ft/min - Descent Speed: 250kts Options: - Use NATs: yes - Use PACOTS: yes - Use low airways: yes - Use high airways: no

Route

FMEP PASAR A402F PLS FIMP

ID Type Via Altitude (ft/m) Position (lat/lon) Dist (leg/tot) Name
O FMEP APT - 0 / 0 -21.32004 / 55.42358 - / 0 nm ST PIERRE PIERREFONDS
PASAR FIX - 17,300 / 5,273 -21.01800 / 56.39944 57 / 57 nm
PLS VOR A402F (AWY-LO) 3,500 / 1,067 -20.42003 / 57.66233 79 / 137 nm PLAISANCE VOR-DME
O FIMP APT - 0 / 0 -20.43023 / 57.68360 1 / 138 nm SIR SEEWOOSAGUR RAMGOOLAM INTL

Altitude Profile

Advertisement - Login to hide

FMEP

Details ICAO FMEP (ZSE)
Name ST PIERRE PIERREFONDS
Region Comoros, Mayotte, Réunion and Madagascar
Timezone Unknown
Stats Elevation 56 ft / 17 m (AMSL)
Location -21.319400° 55.422600°
Runways 1
Magnetic Variation 19.415° W

METAR

FMEP 140100Z AUTO 04006KT CAVOK 22/16 Q1017

Decode

TAF

Not found

Departure Runways

ID Width Length Bearing (true/mag) Surface Threshold Overrun Markings Lighting
15 133 ft / 41 m 6,900 ft / 2,103 m 129.13° / 148.54° ASPHALT 0 ft / 0 m 0 ft / 0 m APP
33 133 ft / 41 m 6,900 ft / 2,103 m 309.12° / 328.54° ASPHALT 0 ft / 0 m 0 ft / 0 m APP

FIMP

Details ICAO FIMP (MRU)
Name Sir Seewoosagur Ramgoolam Intl
Region Mauritius
Timezone Indian/Mauritius (UTC+4.0)
Stats Elevation 183 ft / 56 m (AMSL)
Location -20.430200° 57.683600°
Runways 1
Magnetic Variation 18.229° W

METAR

FIMP 140100Z 11010KT 9999 SCT018 24/20 Q1018

Decode

TAF

TAF FIMP 132330Z 1400/1506 10010KT 9999 SCT018

Decode

Destination Runways

ID Width Length Bearing (true/mag) Surface Threshold Overrun Markings Lighting
14 148 ft / 45 m 11,073 ft / 3,375 m 117.17° / 135.40° ASPHALT 1,086 ft / 331 m 203 ft / 62 m PREC-APP CENTERLINE EDGE THRESHOLD ALSF-I
32 148 ft / 45 m 11,073 ft / 3,375 m 297.17° / 315.39° ASPHALT 0 ft / 0 m 197 ft / 60 m PREC-APP CENTERLINE EDGE THRESHOLD ODALS

Approach Navaids

Runway Type Ident Frequency Range Bearing (true/mag) Slope Elevation
14 OM OM - - 117.22° / 135.45 ° - 186 ft / 57 m (AMSL)
14 LOC-ILS IPL 109.90 MHz 18 nm / 33 km 117.12° / 135.35 ° - 183 ft / 56 m (AMSL)
14 MM MM - - 117.22° / 135.45 ° - 186 ft / 57 m (AMSL)
14 DME IPL 109.90 MHz 18 nm / 33 km - - 186 ft / 57 m (AMSL)
14 GS IPL 109.90 MHz 10 nm / 19 km 117.12° / 135.35 ° 3.50° 183 ft / 56 m (AMSL)

Popular Alternatives